sensor_id;sensor_type;location;lat;lon;timestamp;pressure;altitude;pressure_sealevel;temperature;humidity
75447;BME280;64024;55.820;37.574;2023-08-06T00:02:21;99163.28;;;25.98;37.88
75447;BME280;64024;55.820;37.574;2023-08-06T00:04:46;99158.63;;;25.98;37.56
75447;BME280;64024;55.820;37.574;2023-08-06T00:07:12;99169.19;;;26.00;37.76
75447;BME280;64024;55.820;37.574;2023-08-06T00:09:37;99162.66;;;26.01;37.78
75447;BME280;64024;55.820;37.574;2023-08-06T00:12:03;99159.13;;;26.00;37.99
75447;BME280;64024;55.820;37.574;2023-08-06T00:14:31;99161.53;;;26.02;37.76
75447;BME280;64024;55.820;37.574;2023-08-06T00:16:59;99160.41;;;26.03;37.97
75447;BME280;64024;55.820;37.574;2023-08-06T00:19:25;99159.78;;;26.06;37.92
75447;BME280;64024;55.820;37.574;2023-08-06T00:21:50;99161.91;;;26.09;38.13
75447;BME280;64024;55.820;37.574;2023-08-06T00:24:16;99166.72;;;26.12;37.91
75447;BME280;64024;55.820;37.574;2023-08-06T00:26:42;99165.28;;;26.15;38.36
75447;BME280;64024;55.820;37.574;2023-08-06T00:29:07;99166.88;;;26.16;39.08
75447;BME280;64024;55.820;37.574;2023-08-06T00:31:33;99165.28;;;26.15;39.11
75447;BME280;64024;55.820;37.574;2023-08-06T00:33:58;99165.44;;;26.10;38.25
75447;BME280;64024;55.820;37.574;2023-08-06T00:36:24;99161.03;;;26.00;37.68
75447;BME280;64024;55.820;37.574;2023-08-06T00:38:49;99177.31;;;25.91;36.76
75447;BME280;64024;55.820;37.574;2023-08-06T00:41:15;99178.38;;;25.82;36.47
75447;BME280;64024;55.820;37.574;2023-08-06T00:43:40;99176.69;;;25.72;35.92
75447;BME280;64024;55.820;37.574;2023-08-06T00:46:06;99180.34;;;25.67;35.91
75447;BME280;64024;55.820;37.574;2023-08-06T00:48:32;99178.72;;;25.66;36.14
75447;BME280;64024;55.820;37.574;2023-08-06T00:50:58;99178.44;;;25.68;36.63
75447;BME280;64024;55.820;37.574;2023-08-06T00:53:23;99176.69;;;25.72;37.03
75447;BME280;64024;55.820;37.574;2023-08-06T00:55:50;99175.59;;;25.73;36.99
75447;BME280;64024;55.820;37.574;2023-08-06T00:58:16;99171.44;;;25.75;37.09
75447;BME280;64024;55.820;37.574;2023-08-06T01:00:42;99174.97;;;25.76;37.18
75447;BME280;64024;55.820;37.574;2023-08-06T01:03:08;99184.78;;;25.77;37.32
75447;BME280;64024;55.820;37.574;2023-08-06T01:05:34;99186.38;;;25.78;37.53
75447;BME280;64024;55.820;37.574;2023-08-06T01:08:20;99180.31;;;25.81;37.53
75447;BME280;64024;55.820;37.574;2023-08-06T01:13:42;99183.09;;;25.90;37.69
75447;BME280;64024;55.820;37.574;2023-08-06T01:16:11;99177.31;;;25.91;37.52
75447;BME280;64024;55.820;37.574;2023-08-06T01:18:38;99180.56;;;25.93;37.44
75447;BME280;64024;55.820;37.574;2023-08-06T01:21:04;99175.41;;;25.92;37.52
75447;BME280;64024;55.820;37.574;2023-08-06T01:23:33;99173.19;;;25.94;37.67
75447;BME280;64024;55.820;37.574;2023-08-06T01:28:56;99176.56;;;25.99;37.97
75447;BME280;64024;55.820;37.574;2023-08-06T01:31:28;99178.19;;;26.00;38.06
75447;BME280;64024;55.820;37.574;2023-08-06T01:33:56;99182.19;;;26.03;37.93
75447;BME280;64024;55.820;37.574;2023-08-06T01:36:23;99181.91;;;26.05;38.76
75447;BME280;64024;55.820;37.574;2023-08-06T01:38:51;99182.38;;;26.07;39.27
75447;BME280;64024;55.820;37.574;2023-08-06T01:41:17;99191.53;;;26.11;39.34
75447;BME280;64024;55.820;37.574;2023-08-06T01:43:43;99178.44;;;26.13;39.90
75447;BME280;64024;55.820;37.574;2023-08-06T01:46:08;99187.88;;;26.15;40.23
75447;BME280;64024;55.820;37.574;2023-08-06T01:48:34;99190.00;;;26.18;40.62
75447;BME280;64024;55.820;37.574;2023-08-06T01:51:00;99192.09;;;26.21;41.10
75447;BME280;64024;55.820;37.574;2023-08-06T01:53:25;99191.44;;;26.24;41.39
75447;BME280;64024;55.820;37.574;2023-08-06T01:55:51;99191.16;;;26.26;41.39
75447;BME280;64024;55.820;37.574;2023-08-06T01:58:16;99192.75;;;26.27;41.02
75447;BME280;64024;55.820;37.574;2023-08-06T02:00:42;99189.41;;;26.30;41.39
75447;BME280;64024;55.820;37.574;2023-08-06T02:03:10;99195.34;;;26.32;41.40
75447;BME280;64024;55.820;37.574;2023-08-06T02:05:35;99193.91;;;26.35;41.15
75447;BME280;64024;55.820;37.574;2023-08-06T02:08:01;99194.38;;;26.37;40.82
75447;BME280;64024;55.820;37.574;2023-08-06T02:10:29;99204.66;;;26.40;41.17
75447;BME280;64024;55.820;37.574;2023-08-06T02:12:54;99202.44;;;26.42;41.06
75447;BME280;64024;55.820;37.574;2023-08-06T02:15:20;99206.50;;;26.44;40.98
75447;BME280;64024;55.820;37.574;2023-08-06T02:17:46;99201.53;;;26.46;41.25
75447;BME280;64024;55.820;37.574;2023-08-06T02:20:11;99207.13;;;26.50;41.39
75447;BME280;64024;55.820;37.574;2023-08-06T02:22:39;99202.19;;;26.52;40.98
75447;BME280;64024;55.820;37.574;2023-08-06T02:25:05;99199.66;;;26.56;40.85
75447;BME280;64024;55.820;37.574;2023-08-06T02:27:30;99205.56;;;26.58;41.27
75447;BME280;64024;55.820;37.574;2023-08-06T02:29:58;99212.00;;;26.62;41.14
75447;BME280;64024;55.820;37.574;2023-08-06T02:32:27;99209.47;;;26.65;41.29
75447;BME280;64024;55.820;37.574;2023-08-06T02:34:55;99206.91;;;26.69;41.38
75447;BME280;64024;55.820;37.574;2023-08-06T02:37:20;99206.28;;;26.72;41.52
75447;BME280;64024;55.820;37.574;2023-08-06T02:39:55;99199.09;;;26.76;41.42
75447;BME280;64024;55.820;37.574;2023-08-06T02:42:20;99203.88;;;26.79;41.30
75447;BME280;64024;55.820;37.574;2023-08-06T02:44:46;99206.78;;;26.83;41.46
75447;BME280;64024;55.820;37.574;2023-08-06T02:47:11;99207.75;;;26.87;41.72
75447;BME280;64024;55.820;37.574;2023-08-06T02:49:37;99202.47;;;26.90;41.75
75447;BME280;64024;55.820;37.574;2023-08-06T02:52:06;99203.44;;;26.94;41.89
75447;BME280;64024;55.820;37.574;2023-08-06T02:54:32;99201.69;;;26.98;42.09
75447;BME280;64024;55.820;37.574;2023-08-06T02:56:57;99205.91;;;27.05;41.98
75447;BME280;64024;55.820;37.574;2023-08-06T02:59:23;99203.03;;;27.10;42.49
75447;BME280;64024;55.820;37.574;2023-08-06T03:01:48;99205.94;;;27.13;42.31
75447;BME280;64024;55.820;37.574;2023-08-06T03:04:14;99207.22;;;27.16;41.87
75447;BME280;64024;55.820;37.574;2023-08-06T03:06:48;99206.56;;;27.19;42.60
75447;BME280;64024;55.820;37.574;2023-08-06T03:09:19;99210.28;;;27.23;42.50
75447;BME280;64024;55.820;37.574;2023-08-06T03:11:54;99205.00;;;27.26;41.98
75447;BME280;64024;55.820;37.574;2023-08-06T03:14:20;99202.72;;;27.29;42.27
75447;BME280;64024;55.820;37.574;2023-08-06T03:16:48;99203.69;;;27.33;42.20
75447;BME280;64024;55.820;37.574;2023-08-06T03:19:16;99210.94;;;27.37;42.21
75447;BME280;64024;55.820;37.574;2023-08-06T03:21:41;99204.03;;;27.40;42.26
75447;BME280;64024;55.820;37.574;2023-08-06T03:24:07;99208.53;;;27.44;42.60
75447;BME280;64024;55.820;37.574;2023-08-06T03:26:35;99201.63;;;27.47;42.25
75447;BME280;64024;55.820;37.574;2023-08-06T03:29:19;99201.47;;;27.52;42.48
75447;BME280;64024;55.820;37.574;2023-08-06T03:32:08;99203.22;;;27.57;42.71
75447;BME280;64024;55.820;37.574;2023-08-06T03:34:38;99200.19;;;27.58;42.53
75447;BME280;64024;55.820;37.574;2023-08-06T03:37:14;99207.72;;;27.61;42.36
75447;BME280;64024;55.820;37.574;2023-08-06T03:39:42;99208.22;;;27.63;42.35
75447;BME280;64024;55.820;37.574;2023-08-06T03:42:15;99210.78;;;27.68;42.80
75447;BME280;64024;55.820;37.574;2023-08-06T03:44:50;99205.47;;;27.72;42.59
75447;BME280;64024;55.820;37.574;2023-08-06T03:47:15;99208.72;;;27.74;42.25
75447;BME280;64024;55.820;37.574;2023-08-06T03:49:41;99205.34;;;27.77;42.33
75447;BME280;64024;55.820;37.574;2023-08-06T03:52:06;99209.38;;;27.80;42.25
75447;BME280;64024;55.820;37.574;2023-08-06T03:54:35;99211.44;;;27.83;42.72
75447;BME280;64024;55.820;37.574;2023-08-06T03:57:00;99204.53;;;27.85;42.70
75447;BME280;64024;55.820;37.574;2023-08-06T03:59:26;99203.88;;;27.88;42.48
75447;BME280;64024;55.820;37.574;2023-08-06T04:02:02;99207.56;;;27.92;42.55
75447;BME280;64024;55.820;37.574;2023-08-06T04:04:30;99205.00;;;27.96;42.51
75447;BME280;64024;55.820;37.574;2023-08-06T04:07:06;99200.81;;;27.98;41.94
75447;BME280;64024;55.820;37.574;2023-08-06T04:09:32;99198.88;;;27.99;41.86
75447;BME280;64024;55.820;37.574;2023-08-06T04:11:57;99198.88;;;27.99;41.21
75447;BME280;64024;55.820;37.574;2023-08-06T04:14:30;99200.00;;;27.98;40.58
75447;BME280;64024;55.820;37.574;2023-08-06T04:17:19;99201.59;;;27.99;39.32
75447;BME280;64024;55.820;37.574;2023-08-06T04:20:06;99203.53;;;27.98;38.79
75447;BME280;64024;55.820;37.574;2023-08-06T04:22:32;99202.28;;;27.96;38.63
75447;BME280;64024;55.820;37.574;2023-08-06T04:25:03;99199.03;;;27.94;37.87
75447;BME280;64024;55.820;37.574;2023-08-06T04:27:31;99204.03;;;27.92;37.81
75447;BME280;64024;55.820;37.574;2023-08-06T04:29:57;99204.34;;;27.90;37.62
75447;BME280;64024;55.820;37.574;2023-08-06T04:32:27;99206.28;;;27.90;36.93
75447;BME280;64024;55.820;37.574;2023-08-06T04:34:55;99211.28;;;27.88;36.81
75447;BME280;64024;55.820;37.574;2023-08-06T04:37:21;99202.28;;;27.87;36.67
75447;BME280;64024;55.820;37.574;2023-08-06T04:39:48;99209.34;;;27.88;37.02
75447;BME280;64024;55.820;37.574;2023-08-06T04:42:16;99201.63;;;27.90;37.03
75447;BME280;64024;55.820;37.574;2023-08-06T04:44:51;99202.13;;;27.92;37.03
75447;BME280;64024;55.820;37.574;2023-08-06T04:47:21;99203.38;;;27.95;37.28
75447;BME280;64024;55.820;37.574;2023-08-06T04:49:59;99203.06;;;27.96;37.40
75447;BME280;64024;55.820;37.574;2023-08-06T04:52:27;99205.97;;;28.00;37.26
75447;BME280;64024;55.820;37.574;2023-08-06T04:54:54;99209.16;;;28.02;38.03
75447;BME280;64024;55.820;37.574;2023-08-06T04:57:20;99203.06;;;28.05;37.56
75447;BME280;64024;55.820;37.574;2023-08-06T04:59:54;99203.22;;;28.09;38.01
75447;BME280;64024;55.820;37.574;2023-08-06T05:02:19;99204.47;;;28.11;38.19
75447;BME280;64024;55.820;37.574;2023-08-06T05:04:49;99200.28;;;28.14;38.23
75447;BME280;64024;55.820;37.574;2023-08-06T05:07:35;99208.66;;;28.17;37.91
75447;BME280;64024;55.820;37.574;2023-08-06T05:10:03;99202.84;;;28.19;38.09
75447;BME280;64024;55.820;37.574;2023-08-06T05:12:49;99206.06;;;28.21;38.05
75447;BME280;64024;55.820;37.574;2023-08-06T05:15:40;99194.16;;;28.25;38.40
75447;BME280;64024;55.820;37.574;2023-08-06T05:18:28;99191.09;;;28.27;38.33
75447;BME280;64024;55.820;37.574;2023-08-06T05:21:14;99191.25;;;28.31;38.23
75447;BME280;64024;55.820;37.574;2023-08-06T05:23:46;99199.09;;;28.32;37.86
75447;BME280;64024;55.820;37.574;2023-08-06T05:26:25;99194.13;;;28.34;38.27
75447;BME280;64024;55.820;37.574;2023-08-06T05:32:35;99189.47;;;28.43;38.24
75447;BME280;64024;55.820;37.574;2023-08-06T05:35:14;99184.47;;;28.45;37.96
75447;BME280;64024;55.820;37.574;2023-08-06T05:37:50;99182.19;;;28.47;38.06
75447;BME280;64024;55.820;37.574;2023-08-06T05:40:19;99179.63;;;28.51;38.17
75447;BME280;64024;55.820;37.574;2023-08-06T05:42:44;99176.38;;;28.58;38.24
75447;BME280;64024;55.820;37.574;2023-08-06T05:45:12;99181.13;;;28.69;38.05
75447;BME280;64024;55.820;37.574;2023-08-06T05:47:59;99179.78;;;28.84;37.55
75447;BME280;64024;55.820;37.574;2023-08-06T05:50:44;99176.97;;;28.93;37.60
75447;BME280;64024;55.820;37.574;2023-08-06T05:53:38;99178.56;;;28.94;37.39
75447;BME280;64024;55.820;37.574;2023-08-06T05:56:23;99179.38;;;28.94;37.34
75447;BME280;64024;55.820;37.574;2023-08-06T05:59:17;99179.25;;;28.91;37.21
75447;BME280;64024;55.820;37.574;2023-08-06T06:01:55;99176.38;;;28.87;37.38
75447;BME280;64024;55.820;37.574;2023-08-06T06:04:24;99172.69;;;28.83;36.91
75447;BME280;64024;55.820;37.574;2023-08-06T06:07:03;99184.28;;;28.80;36.46
75447;BME280;64024;55.820;37.574;2023-08-06T06:09:39;99188.81;;;28.76;35.99
75447;BME280;64024;55.820;37.574;2023-08-06T06:12:06;99179.69;;;28.72;35.49
75447;BME280;64024;55.820;37.574;2023-08-06T06:14:31;99179.38;;;28.65;35.12
75447;BME280;64024;55.820;37.574;2023-08-06T06:19:50;99182.34;;;28.51;34.01
75447;BME280;64024;55.820;37.574;2023-08-06T06:22:36;99185.13;;;28.42;33.57
75447;BME280;64024;55.820;37.574;2023-08-06T06:25:19;99174.19;;;28.34;33.02
75447;BME280;64024;55.820;37.574;2023-08-06T06:30:45;99172.63;;;28.15;33.10
75447;BME280;64024;55.820;37.574;2023-08-06T06:33:11;99177.31;;;28.06;33.43
75447;BME280;64024;55.820;37.574;2023-08-06T06:35:37;99178.16;;;27.98;33.38
75447;BME280;64024;55.820;37.574;2023-08-06T06:38:02;99178.97;;;27.90;33.10
75447;BME280;64024;55.820;37.574;2023-08-06T06:40:30;99180.59;;;27.82;33.04
75447;BME280;64024;55.820;37.574;2023-08-06T06:42:58;99181.41;;;27.74;32.76
75447;BME280;64024;55.820;37.574;2023-08-06T06:45:26;99173.19;;;27.65;32.65
75447;BME280;64024;55.820;37.574;2023-08-06T06:47:52;99174.00;;;27.57;32.55
75447;BME280;64024;55.820;37.574;2023-08-06T06:50:23;99170.97;;;27.50;32.61
75447;BME280;64024;55.820;37.574;2023-08-06T06:53:12;99169.50;;;27.44;32.58
75447;BME280;64024;55.820;37.574;2023-08-06T06:56:08;99164.56;;;27.37;32.49
75447;BME280;64024;55.820;37.574;2023-08-06T06:58:51;99162.13;;;27.27;32.55
75447;BME280;64024;55.820;37.574;2023-08-06T07:01:26;99169.69;;;27.21;33.03
75447;BME280;64024;55.820;37.574;2023-08-06T07:03:51;99167.09;;;27.16;33.46
75447;BME280;64024;55.820;37.574;2023-08-06T07:06:17;99173.19;;;27.13;34.12
75447;BME280;64024;55.820;37.574;2023-08-06T07:08:53;99165.03;;;27.13;34.16
75447;BME280;64024;55.820;37.574;2023-08-06T07:11:28;99163.09;;;27.14;34.97
75447;BME280;64024;55.820;37.574;2023-08-06T07:14:07;99162.47;;;27.17;34.89
75447;BME280;64024;55.820;37.574;2023-08-06T07:16:36;99164.84;;;27.18;35.06
75447;BME280;64024;55.820;37.574;2023-08-06T07:19:23;99156.84;;;27.22;35.47
75447;BME280;64024;55.820;37.574;2023-08-06T07:21:48;99161.66;;;27.25;35.59
75447;BME280;64024;55.820;37.574;2023-08-06T07:24:14;99155.53;;;27.28;35.68
75447;BME280;64024;55.820;37.574;2023-08-06T07:26:39;99157.63;;;27.31;35.63
75447;BME280;64024;55.820;37.574;2023-08-06T07:29:05;99158.59;;;27.35;35.95
75447;BME280;64024;55.820;37.574;2023-08-06T07:31:30;99155.25;;;27.38;36.33
75447;BME280;64024;55.820;37.574;2023-08-06T07:33:56;99156.19;;;27.42;36.46
75447;BME280;64024;55.820;37.574;2023-08-06T07:36:22;99153.13;;;27.44;36.52
75447;BME280;64024;55.820;37.574;2023-08-06T07:38:52;99149.78;;;27.47;36.71
75447;BME280;64024;55.820;37.574;2023-08-06T07:41:31;99159.22;;;27.49;36.77
75447;BME280;64024;55.820;37.574;2023-08-06T07:43:57;99155.41;;;27.50;36.66
75447;BME280;64024;55.820;37.574;2023-08-06T07:46:23;99152.66;;;27.50;36.94
75447;BME280;64024;55.820;37.574;2023-08-06T07:48:48;99144.47;;;27.50;36.71
75447;BME280;64024;55.820;37.574;2023-08-06T07:51:14;99148.31;;;27.49;36.31
75447;BME280;64024;55.820;37.574;2023-08-06T07:53:39;99151.38;;;27.48;36.32
75447;BME280;64024;55.820;37.574;2023-08-06T07:56:05;99140.94;;;27.50;36.08
75447;BME280;64024;55.820;37.574;2023-08-06T07:58:31;99155.41;;;27.50;36.51
75447;BME280;64024;55.820;37.574;2023-08-06T08:00:57;99149.25;;;27.54;36.83
75447;BME280;64024;55.820;37.574;2023-08-06T08:03:22;99150.56;;;27.56;36.90
75447;BME280;64024;55.820;37.574;2023-08-06T08:05:48;99142.03;;;27.58;37.37
75447;BME280;64024;55.820;37.574;2023-08-06T08:08:14;99142.53;;;27.60;37.36
75447;BME280;64024;55.820;37.574;2023-08-06T08:10:39;99138.66;;;27.61;37.67
75447;BME280;64024;55.820;37.574;2023-08-06T08:13:05;99138.66;;;27.61;37.52
75447;BME280;64024;55.820;37.574;2023-08-06T08:15:32;99136.72;;;27.61;37.56
75447;BME280;64024;55.820;37.574;2023-08-06T08:17:58;99132.91;;;27.62;37.56
75447;BME280;64024;55.820;37.574;2023-08-06T08:20:24;99139.16;;;27.63;37.83
75447;BME280;64024;55.820;37.574;2023-08-06T08:22:50;99127.09;;;27.64;37.49
75447;BME280;64024;55.820;37.574;2023-08-06T08:25:16;99131.78;;;27.63;37.81
75447;BME280;64024;55.820;37.574;2023-08-06T08:27:41;99132.56;;;27.64;37.50
75447;BME280;64024;55.820;37.574;2023-08-06T08:30:07;99129.03;;;27.63;37.50
75447;BME280;64024;55.820;37.574;2023-08-06T08:32:33;99131.78;;;27.63;37.50
75447;BME280;64024;55.820;37.574;2023-08-06T08:34:59;99125.50;;;27.63;37.24
75447;BME280;64024;55.820;37.574;2023-08-06T08:37:24;99125.50;;;27.63;37.71
75447;BME280;64024;55.820;37.574;2023-08-06T08:39:50;99130.97;;;27.63;37.56
75447;BME280;64024;55.820;37.574;2023-08-06T08:42:16;99120.84;;;27.63;37.36
75447;BME280;64024;55.820;37.574;2023-08-06T08:44:45;99126.31;;;27.63;37.72
75447;BME280;64024;55.820;37.574;2023-08-06T08:47:11;99115.38;;;27.63;37.77
75447;BME280;64024;55.820;37.574;2023-08-06T08:49:37;99122.78;;;27.63;37.27
75447;BME280;64024;55.820;37.574;2023-08-06T08:52:04;99126.31;;;27.63;37.57
75447;BME280;64024;55.820;37.574;2023-08-06T08:54:38;99118.91;;;27.64;37.50
75447;BME280;64024;55.820;37.574;2023-08-06T08:57:04;99125.19;;;27.64;37.64
75447;BME280;64024;55.820;37.574;2023-08-06T08:59:29;99126.78;;;27.65;38.09
75447;BME280;64024;55.820;37.574;2023-08-06T09:01:55;99120.50;;;27.65;37.79
75447;BME280;64024;55.820;37.574;2023-08-06T09:04:22;99122.44;;;27.64;38.23
75447;BME280;64024;55.820;37.574;2023-08-06T09:06:51;99126.47;;;27.67;38.50
75447;BME280;64024;55.820;37.574;2023-08-06T09:09:26;99111.69;;;27.68;38.62
75447;BME280;64024;55.820;37.574;2023-08-06T09:11:59;99116.81;;;27.69;38.73
75447;BME280;64024;55.820;37.574;2023-08-06T09:14:26;99117.59;;;27.70;38.57
75447;BME280;64024;55.820;37.574;2023-08-06T09:16:52;99111.03;;;27.71;38.58
75447;BME280;64024;55.820;37.574;2023-08-06T09:19:17;99111.84;;;27.71;39.08
75447;BME280;64024;55.820;37.574;2023-08-06T09:21:43;99110.69;;;27.72;39.17
75447;BME280;64024;55.820;37.574;2023-08-06T09:24:10;99108.81;;;27.73;38.78
75447;BME280;64024;55.820;37.574;2023-08-06T09:26:37;99117.00;;;27.73;39.03
75447;BME280;64024;55.820;37.574;2023-08-06T09:29:07;99103.34;;;27.73;39.25
75447;BME280;64024;55.820;37.574;2023-08-06T09:31:42;99105.75;;;27.74;39.57
75447;BME280;64024;55.820;37.574;2023-08-06T09:34:15;99104.94;;;27.74;38.82
75447;BME280;64024;55.820;37.574;2023-08-06T09:36:42;99106.06;;;27.73;39.10
75447;BME280;64024;55.820;37.574;2023-08-06T09:39:34;99103.50;;;27.77;39.47
75447;BME280;64024;55.820;37.574;2023-08-06T09:42:01;99108.16;;;27.76;39.56
75447;BME280;64024;55.820;37.574;2023-08-06T09:44:32;99096.09;;;27.77;39.81
75447;BME280;64024;55.820;37.574;2023-08-06T09:47:01;99089.50;;;27.78;39.50
75447;BME280;64024;55.820;37.574;2023-08-06T09:51:59;99091.13;;;27.79;39.39
75447;BME280;64024;55.820;37.574;2023-08-06T09:54:28;99090.78;;;27.81;39.40
75447;BME280;64024;55.820;37.574;2023-08-06T09:56:56;99090.47;;;27.82;39.55
75447;BME280;64024;55.820;37.574;2023-08-06T09:59:24;99079.22;;;27.84;39.24
75447;BME280;64024;55.820;37.574;2023-08-06T10:01:51;99077.28;;;27.84;38.46
75447;BME280;64024;55.820;37.574;2023-08-06T10:04:16;99074.88;;;27.83;38.14
75447;BME280;64024;55.820;37.574;2023-08-06T10:06:43;99072.47;;;27.81;38.45
75447;BME280;64024;55.820;37.574;2023-08-06T10:09:11;99074.41;;;27.81;38.31
75447;BME280;64024;55.820;37.574;2023-08-06T10:11:37;99062.19;;;27.78;37.93
75447;BME280;64024;55.820;37.574;2023-08-06T10:14:15;99065.72;;;27.79;37.73
75447;BME280;64024;55.820;37.574;2023-08-06T10:16:41;99057.03;;;27.85;37.61
75447;BME280;64024;55.820;37.574;2023-08-06T10:19:10;99059.97;;;27.80;37.80
75447;BME280;64024;55.820;37.574;2023-08-06T10:21:38;99059.47;;;27.78;38.13
75447;BME280;64024;55.820;37.574;2023-08-06T10:24:06;99051.63;;;27.77;38.30
75447;BME280;64024;55.820;37.574;2023-08-06T10:26:35;99050.81;;;27.76;38.44
75447;BME280;64024;55.820;37.574;2023-08-06T10:29:00;99048.09;;;27.76;38.49
75447;BME280;64024;55.820;37.574;2023-08-06T10:32:01;99045.34;;;27.76;38.16
75447;BME280;64024;55.820;37.574;2023-08-06T10:34:58;99044.06;;;27.73;38.02
75447;BME280;64024;55.820;37.574;2023-08-06T10:37:35;99047.75;;;27.69;37.68
75447;BME280;64024;55.820;37.574;2023-08-06T10:40:02;99037.00;;;27.64;37.31
75447;BME280;64024;55.820;37.574;2023-08-06T10:42:29;99042.31;;;27.60;36.87
75447;BME280;64024;55.820;37.574;2023-08-06T10:47:40;99040.19;;;27.66;37.05
75447;BME280;64024;55.820;37.574;2023-08-06T10:50:12;99040.19;;;27.66;37.56
75447;BME280;64024;55.820;37.574;2023-08-06T10:52:47;99039.09;;;27.67;37.72
75447;BME280;64024;55.820;37.574;2023-08-06T10:55:14;99037.63;;;27.69;37.99
75447;BME280;64024;55.820;37.574;2023-08-06T10:57:39;99029.44;;;27.69;38.58
75447;BME280;64024;55.820;37.574;2023-08-06T11:00:06;99040.03;;;27.71;38.51
75447;BME280;64024;55.820;37.574;2023-08-06T11:02:36;99037.81;;;27.73;38.30
75447;BME280;64024;55.820;37.574;2023-08-06T11:05:09;99031.69;;;27.76;38.91
75447;BME280;64024;55.820;37.574;2023-08-06T11:07:35;99041.03;;;27.75;38.85
75447;BME280;64024;55.820;37.574;2023-08-06T11:10:05;99038.75;;;27.77;39.18
75447;BME280;64024;55.820;37.574;2023-08-06T11:12:31;99038.41;;;27.79;39.14
75447;BME280;64024;55.820;37.574;2023-08-06T11:14:57;99027.19;;;27.80;39.42
75447;BME280;64024;55.820;37.574;2023-08-06T11:17:24;99032.00;;;27.83;39.46
75447;BME280;64024;55.820;37.574;2023-08-06T11:19:50;99024.25;;;27.85;39.64
75447;BME280;64024;55.820;37.574;2023-08-06T11:22:16;99034.53;;;27.88;39.61
75447;BME280;64024;55.820;37.574;2023-08-06T11:24:42;99031.78;;;27.97;39.43
75447;BME280;64024;55.820;37.574;2023-08-06T11:27:14;99023.91;;;27.95;39.43
75447;BME280;64024;55.820;37.574;2023-08-06T11:29:41;99017.97;;;27.93;39.87
75447;BME280;64024;55.820;37.574;2023-08-06T11:32:10;99022.63;;;27.93;39.84
75447;BME280;64024;55.820;37.574;2023-08-06T11:34:36;99018.75;;;27.94;39.91
75447;BME280;64024;55.820;37.574;2023-08-06T11:37:06;99023.09;;;27.95;40.07
75447;BME280;64024;55.820;37.574;2023-08-06T11:39:33;99018.44;;;27.95;39.80
75447;BME280;64024;55.820;37.574;2023-08-06T11:41:59;99017.63;;;27.95;39.79
75447;BME280;64024;55.820;37.574;2023-08-06T11:44:30;99017.63;;;27.95;39.45
75447;BME280;64024;55.820;37.574;2023-08-06T11:46:57;99026.66;;;27.95;39.39
75447;BME280;64024;55.820;37.574;2023-08-06T11:49:43;99015.03;;;27.98;39.21
75447;BME280;64024;55.820;37.574;2023-08-06T11:52:22;99007.66;;;27.99;39.14
75447;BME280;64024;55.820;37.574;2023-08-06T11:55:05;99008.00;;;27.97;38.73
75447;BME280;64024;55.820;37.574;2023-08-06T11:57:38;99012.16;;;27.95;38.52
75447;BME280;64024;55.820;37.574;2023-08-06T12:00:10;99009.44;;;27.95;38.94
75447;BME280;64024;55.820;37.574;2023-08-06T12:02:38;99007.53;;;27.95;38.75
75447;BME280;64024;55.820;37.574;2023-08-06T12:05:13;99000.94;;;27.96;39.47
75447;BME280;64024;55.820;37.574;2023-08-06T12:07:41;98997.53;;;27.99;39.54
75447;BME280;64024;55.820;37.574;2023-08-06T12:10:07;99000.28;;;27.99;39.03
75447;BME280;64024;55.820;37.574;2023-08-06T12:12:34;98995.28;;;28.02;39.35
75447;BME280;64024;55.820;37.574;2023-08-06T12:14:59;98998.00;;;28.02;39.27
75447;BME280;64024;55.820;37.574;2023-08-06T12:17:25;98993.03;;;28.04;39.23
75447;BME280;64024;55.820;37.574;2023-08-06T12:19:51;98994.63;;;28.05;39.47
75447;BME280;64024;55.820;37.574;2023-08-06T12:22:17;98987.69;;;28.07;39.31
75447;BME280;64024;55.820;37.574;2023-08-06T12:24:44;98987.38;;;28.09;38.85
75447;BME280;64024;55.820;37.574;2023-08-06T12:27:10;98985.44;;;28.09;38.85
75447;BME280;64024;55.820;37.574;2023-08-06T12:29:42;98991.34;;;28.11;38.83
75447;BME280;64024;55.820;37.574;2023-08-06T12:32:12;98984.78;;;28.12;39.36
75447;BME280;64024;55.820;37.574;2023-08-06T12:34:41;98988.75;;;28.15;39.47
75447;BME280;64024;55.820;37.574;2023-08-06T12:37:08;98994.72;;;28.17;39.51
75447;BME280;64024;55.820;37.574;2023-08-06T12:39:35;98994.03;;;28.20;40.13
75447;BME280;64024;55.820;37.574;2023-08-06T12:42:01;98978.91;;;28.22;41.09
75447;BME280;64024;55.820;37.574;2023-08-06T12:44:27;98975.53;;;28.25;41.24
75447;BME280;64024;55.820;37.574;2023-08-06T12:46:53;98988.53;;;28.29;41.23
75447;BME280;64024;55.820;37.574;2023-08-06T12:49:19;98978.41;;;28.29;40.89
75447;BME280;64024;55.820;37.574;2023-08-06T12:51:49;98985.81;;;28.29;40.48
75447;BME280;64024;55.820;37.574;2023-08-06T12:54:16;98976.31;;;28.26;39.94
75447;BME280;64024;55.820;37.574;2023-08-06T12:56:41;98976.66;;;28.24;39.98
75447;BME280;64024;55.820;37.574;2023-08-06T12:59:07;98982.94;;;28.25;39.38
75447;BME280;64024;55.820;37.574;2023-08-06T13:01:33;98973.44;;;28.22;38.98
75447;BME280;64024;55.820;37.574;2023-08-06T13:03:59;98973.44;;;28.22;38.84
75447;BME280;64024;55.820;37.574;2023-08-06T13:06:25;98966.78;;;28.32;38.90
75447;BME280;64024;55.820;37.574;2023-08-06T13:08:50;98965.03;;;28.28;38.85
75447;BME280;64024;55.820;37.574;2023-08-06T13:11:16;98963.78;;;28.25;38.23
75447;BME280;64024;55.820;37.574;2023-08-06T13:13:42;98965.75;;;28.24;38.62
75447;BME280;64024;55.820;37.574;2023-08-06T13:16:07;98967.00;;;28.27;38.94
75447;BME280;64024;55.820;37.574;2023-08-06T13:18:33;98959.59;;;28.28;38.93
75447;BME280;64024;55.820;37.574;2023-08-06T13:20:58;98965.19;;;28.31;38.99
75447;BME280;64024;55.820;37.574;2023-08-06T13:23:24;98970.78;;;28.35;38.92